sensor_id;sensor_type;location;lat;lon;timestamp;P1;durP1;ratioP1;P2;durP2;ratioP2
10805;SDS011;5455;53.224;6.000;2023-03-01T00:01:13;11.30;;;6.67;;
10805;SDS011;5455;53.224;6.000;2023-03-01T00:03:42;12.30;;;7.30;;
10805;SDS011;5455;53.224;6.000;2023-03-01T00:06:09;10.43;;;6.87;;
10805;SDS011;5455;53.224;6.000;2023-03-01T00:08:37;9.47;;;6.03;;
10805;SDS011;5455;53.224;6.000;2023-03-01T00:11:06;10.17;;;5.90;;
10805;SDS011;5455;53.224;6.000;2023-03-01T00:13:34;9.43;;;6.97;;
10805;SDS011;5455;53.224;6.000;2023-03-01T00:16:03;9.20;;;6.20;;
10805;SDS011;5455;53.224;6.000;2023-03-01T00:18:33;10.57;;;7.00;;
10805;SDS011;5455;53.224;6.000;2023-03-01T00:21:00;11.17;;;6.93;;
10805;SDS011;5455;53.224;6.000;2023-03-01T00:23:27;9.83;;;7.20;;
10805;SDS011;5455;53.224;6.000;2023-03-01T00:25:54;10.10;;;7.40;;
10805;SDS011;5455;53.224;6.000;2023-03-01T00:28:22;10.43;;;7.27;;
10805;SDS011;5455;53.224;6.000;2023-03-01T00:30:49;11.03;;;6.87;;
10805;SDS011;5455;53.224;6.000;2023-03-01T00:33:17;11.97;;;7.93;;
10805;SDS011;5455;53.224;6.000;2023-03-01T00:35:44;10.77;;;7.73;;
10805;SDS011;5455;53.224;6.000;2023-03-01T00:38:11;13.17;;;8.10;;
10805;SDS011;5455;53.224;6.000;2023-03-01T00:40:39;11.43;;;7.70;;
10805;SDS011;5455;53.224;6.000;2023-03-01T00:43:05;10.37;;;7.90;;
10805;SDS011;5455;53.224;6.000;2023-03-01T00:45:32;11.87;;;8.20;;
10805;SDS011;5455;53.224;6.000;2023-03-01T00:47:59;13.53;;;9.23;;
10805;SDS011;5455;53.224;6.000;2023-03-01T00:50:27;16.60;;;9.80;;
10805;SDS011;5455;53.224;6.000;2023-03-01T00:52:54;16.47;;;10.60;;
10805;SDS011;5455;53.224;6.000;2023-03-01T00:55:22;15.40;;;10.83;;
10805;SDS011;5455;53.224;6.000;2023-03-01T00:57:50;13.87;;;9.60;;
10805;SDS011;5455;53.224;6.000;2023-03-01T01:00:18;15.27;;;10.57;;
10805;SDS011;5455;53.224;6.000;2023-03-01T01:02:46;12.63;;;8.83;;
10805;SDS011;5455;53.224;6.000;2023-03-01T01:05:14;14.40;;;9.90;;
10805;SDS011;5455;53.224;6.000;2023-03-01T01:07:41;13.20;;;8.30;;
10805;SDS011;5455;53.224;6.000;2023-03-01T01:10:08;12.73;;;8.90;;
10805;SDS011;5455;53.224;6.000;2023-03-01T01:12:39;9.00;;;7.47;;
10805;SDS011;5455;53.224;6.000;2023-03-01T01:15:06;10.90;;;7.47;;
10805;SDS011;5455;53.224;6.000;2023-03-01T01:17:34;7.47;;;6.40;;
10805;SDS011;5455;53.224;6.000;2023-03-01T01:20:01;8.60;;;6.90;;
10805;SDS011;5455;53.224;6.000;2023-03-01T01:22:28;7.97;;;6.43;;
10805;SDS011;5455;53.224;6.000;2023-03-01T01:24:55;6.30;;;5.57;;
10805;SDS011;5455;53.224;6.000;2023-03-01T01:27:23;5.83;;;5.20;;
10805;SDS011;5455;53.224;6.000;2023-03-01T01:29:52;8.13;;;6.70;;
10805;SDS011;5455;53.224;6.000;2023-03-01T01:32:19;10.83;;;7.80;;
10805;SDS011;5455;53.224;6.000;2023-03-01T01:34:46;9.07;;;7.30;;
10805;SDS011;5455;53.224;6.000;2023-03-01T01:37:13;10.50;;;7.60;;
10805;SDS011;5455;53.224;6.000;2023-03-01T01:39:42;7.80;;;6.30;;
10805;SDS011;5455;53.224;6.000;2023-03-01T01:42:14;7.00;;;5.33;;
10805;SDS011;5455;53.224;6.000;2023-03-01T01:44:44;6.17;;;5.33;;
10805;SDS011;5455;53.224;6.000;2023-03-01T01:47:14;6.70;;;5.73;;
10805;SDS011;5455;53.224;6.000;2023-03-01T01:52:25;7.97;;;6.23;;
10805;SDS011;5455;53.224;6.000;2023-03-01T01:57:29;7.77;;;5.83;;
10805;SDS011;5455;53.224;6.000;2023-03-01T02:00:14;8.93;;;6.87;;
10805;SDS011;5455;53.224;6.000;2023-03-01T02:02:45;9.43;;;6.70;;
10805;SDS011;5455;53.224;6.000;2023-03-01T02:05:20;10.13;;;6.97;;
10805;SDS011;5455;53.224;6.000;2023-03-01T02:07:54;7.97;;;6.40;;
10805;SDS011;5455;53.224;6.000;2023-03-01T02:10:22;9.37;;;6.33;;
10805;SDS011;5455;53.224;6.000;2023-03-01T02:12:51;7.63;;;5.30;;
10805;SDS011;5455;53.224;6.000;2023-03-01T02:15:19;6.63;;;4.53;;
10805;SDS011;5455;53.224;6.000;2023-03-01T02:17:46;4.67;;;4.03;;
10805;SDS011;5455;53.224;6.000;2023-03-01T02:20:23;5.10;;;3.80;;
10805;SDS011;5455;53.224;6.000;2023-03-01T02:22:59;5.17;;;4.30;;
10805;SDS011;5455;53.224;6.000;2023-03-01T02:30:43;3.90;;;3.10;;
10805;SDS011;5455;53.224;6.000;2023-03-01T02:33:34;3.50;;;3.07;;
10805;SDS011;5455;53.224;6.000;2023-03-01T02:36:03;2.93;;;2.67;;
10805;SDS011;5455;53.224;6.000;2023-03-01T02:38:34;2.13;;;1.93;;
10805;SDS011;5455;53.224;6.000;2023-03-01T02:41:02;2.87;;;1.90;;
10805;SDS011;5455;53.224;6.000;2023-03-01T02:43:31;2.50;;;2.30;;
10805;SDS011;5455;53.224;6.000;2023-03-01T02:46:03;2.30;;;2.10;;
10805;SDS011;5455;53.224;6.000;2023-03-01T02:53:58;2.63;;;2.40;;
10805;SDS011;5455;53.224;6.000;2023-03-01T02:56:44;2.90;;;2.37;;
10805;SDS011;5455;53.224;6.000;2023-03-01T02:59:18;2.67;;;2.43;;
10805;SDS011;5455;53.224;6.000;2023-03-01T03:01:47;2.97;;;2.63;;
10805;SDS011;5455;53.224;6.000;2023-03-01T03:04:17;3.40;;;2.70;;
10805;SDS011;5455;53.224;6.000;2023-03-01T03:06:49;3.00;;;2.70;;
10805;SDS011;5455;53.224;6.000;2023-03-01T03:09:17;3.70;;;2.77;;
10805;SDS011;5455;53.224;6.000;2023-03-01T03:11:45;3.37;;;2.50;;
10805;SDS011;5455;53.224;6.000;2023-03-01T03:14:13;2.90;;;2.60;;
10805;SDS011;5455;53.224;6.000;2023-03-01T03:16:49;3.03;;;2.67;;
10805;SDS011;5455;53.224;6.000;2023-03-01T03:19:17;3.37;;;2.60;;
10805;SDS011;5455;53.224;6.000;2023-03-01T03:21:45;3.67;;;2.80;;
10805;SDS011;5455;53.224;6.000;2023-03-01T03:24:12;2.90;;;2.70;;
10805;SDS011;5455;53.224;6.000;2023-03-01T03:26:39;3.63;;;3.10;;
10805;SDS011;5455;53.224;6.000;2023-03-01T03:29:06;4.97;;;3.50;;
10805;SDS011;5455;53.224;6.000;2023-03-01T03:31:33;4.57;;;3.10;;
10805;SDS011;5455;53.224;6.000;2023-03-01T03:34:00;3.83;;;3.23;;
10805;SDS011;5455;53.224;6.000;2023-03-01T03:36:27;5.40;;;3.37;;
10805;SDS011;5455;53.224;6.000;2023-03-01T03:38:54;3.77;;;3.30;;
10805;SDS011;5455;53.224;6.000;2023-03-01T03:41:23;4.17;;;3.50;;
10805;SDS011;5455;53.224;6.000;2023-03-01T03:43:50;3.57;;;3.13;;
10805;SDS011;5455;53.224;6.000;2023-03-01T03:46:17;4.37;;;3.40;;
10805;SDS011;5455;53.224;6.000;2023-03-01T03:48:44;3.70;;;3.33;;
10805;SDS011;5455;53.224;6.000;2023-03-01T03:51:16;3.63;;;3.17;;
10805;SDS011;5455;53.224;6.000;2023-03-01T03:53:44;3.97;;;3.13;;
10805;SDS011;5455;53.224;6.000;2023-03-01T03:56:11;4.13;;;2.87;;
10805;SDS011;5455;53.224;6.000;2023-03-01T03:58:39;4.70;;;3.40;;
10805;SDS011;5455;53.224;6.000;2023-03-01T04:01:06;4.27;;;3.07;;
10805;SDS011;5455;53.224;6.000;2023-03-01T04:03:33;3.83;;;3.10;;
10805;SDS011;5455;53.224;6.000;2023-03-01T04:06:02;4.20;;;3.10;;
10805;SDS011;5455;53.224;6.000;2023-03-01T04:08:30;4.50;;;3.37;;
10805;SDS011;5455;53.224;6.000;2023-03-01T04:10:59;3.97;;;3.03;;
10805;SDS011;5455;53.224;6.000;2023-03-01T04:13:48;3.57;;;3.13;;
10805;SDS011;5455;53.224;6.000;2023-03-01T04:16:15;4.43;;;3.30;;
10805;SDS011;5455;53.224;6.000;2023-03-01T04:18:42;4.10;;;3.27;;
10805;SDS011;5455;53.224;6.000;2023-03-01T04:21:10;3.87;;;3.37;;
10805;SDS011;5455;53.224;6.000;2023-03-01T04:23:37;4.00;;;3.27;;
10805;SDS011;5455;53.224;6.000;2023-03-01T04:26:05;3.87;;;3.20;;
10805;SDS011;5455;53.224;6.000;2023-03-01T04:28:33;5.17;;;4.20;;
10805;SDS011;5455;53.224;6.000;2023-03-01T04:31:09;4.57;;;4.00;;
10805;SDS011;5455;53.224;6.000;2023-03-01T04:33:43;4.47;;;4.07;;
10805;SDS011;5455;53.224;6.000;2023-03-01T04:36:15;4.13;;;3.70;;
10805;SDS011;5455;53.224;6.000;2023-03-01T04:38:44;3.63;;;3.27;;
10805;SDS011;5455;53.224;6.000;2023-03-01T04:41:16;3.33;;;3.03;;
10805;SDS011;5455;53.224;6.000;2023-03-01T04:43:44;5.33;;;3.40;;
10805;SDS011;5455;53.224;6.000;2023-03-01T04:46:13;3.67;;;3.10;;
10805;SDS011;5455;53.224;6.000;2023-03-01T04:48:42;4.03;;;3.20;;
10805;SDS011;5455;53.224;6.000;2023-03-01T04:51:10;4.10;;;3.20;;
10805;SDS011;5455;53.224;6.000;2023-03-01T04:53:42;4.37;;;3.37;;
10805;SDS011;5455;53.224;6.000;2023-03-01T04:56:09;4.73;;;3.20;;
10805;SDS011;5455;53.224;6.000;2023-03-01T04:58:36;4.13;;;3.33;;
10805;SDS011;5455;53.224;6.000;2023-03-01T05:01:14;3.63;;;3.13;;
10805;SDS011;5455;53.224;6.000;2023-03-01T05:03:43;4.23;;;3.17;;
10805;SDS011;5455;53.224;6.000;2023-03-01T05:06:11;4.07;;;3.43;;
10805;SDS011;5455;53.224;6.000;2023-03-01T05:08:39;4.93;;;3.43;;
10805;SDS011;5455;53.224;6.000;2023-03-01T05:11:07;3.93;;;3.37;;
10805;SDS011;5455;53.224;6.000;2023-03-01T05:13:36;4.67;;;3.67;;
10805;SDS011;5455;53.224;6.000;2023-03-01T05:16:05;4.27;;;3.53;;
10805;SDS011;5455;53.224;6.000;2023-03-01T05:18:34;3.70;;;3.30;;
10805;SDS011;5455;53.224;6.000;2023-03-01T05:21:03;3.37;;;3.00;;
10805;SDS011;5455;53.224;6.000;2023-03-01T05:23:34;4.73;;;3.80;;
10805;SDS011;5455;53.224;6.000;2023-03-01T05:26:03;4.23;;;3.47;;
10805;SDS011;5455;53.224;6.000;2023-03-01T05:28:36;4.20;;;3.80;;
10805;SDS011;5455;53.224;6.000;2023-03-01T05:31:04;4.20;;;3.20;;
10805;SDS011;5455;53.224;6.000;2023-03-01T05:33:39;4.33;;;3.30;;
10805;SDS011;5455;53.224;6.000;2023-03-01T05:36:07;4.00;;;3.33;;
10805;SDS011;5455;53.224;6.000;2023-03-01T05:38:36;4.40;;;3.37;;
10805;SDS011;5455;53.224;6.000;2023-03-01T05:41:02;5.57;;;3.63;;
10805;SDS011;5455;53.224;6.000;2023-03-01T05:43:30;4.23;;;3.83;;
10805;SDS011;5455;53.224;6.000;2023-03-01T05:46:00;4.33;;;3.50;;
10805;SDS011;5455;53.224;6.000;2023-03-01T05:48:28;4.43;;;3.50;;
10805;SDS011;5455;53.224;6.000;2023-03-01T05:50:55;4.37;;;3.73;;
10805;SDS011;5455;53.224;6.000;2023-03-01T05:53:26;4.67;;;3.93;;
10805;SDS011;5455;53.224;6.000;2023-03-01T05:55:53;5.37;;;3.80;;
10805;SDS011;5455;53.224;6.000;2023-03-01T05:58:20;3.90;;;3.50;;
10805;SDS011;5455;53.224;6.000;2023-03-01T06:00:48;3.40;;;3.10;;
10805;SDS011;5455;53.224;6.000;2023-03-01T06:03:20;4.70;;;3.80;;
10805;SDS011;5455;53.224;6.000;2023-03-01T06:05:47;5.37;;;4.00;;
10805;SDS011;5455;53.224;6.000;2023-03-01T06:08:14;4.20;;;3.73;;
10805;SDS011;5455;53.224;6.000;2023-03-01T06:10:41;6.23;;;4.03;;
10805;SDS011;5455;53.224;6.000;2023-03-01T06:13:08;4.80;;;3.77;;
10805;SDS011;5455;53.224;6.000;2023-03-01T06:15:35;5.20;;;3.97;;
10805;SDS011;5455;53.224;6.000;2023-03-01T06:18:02;4.30;;;3.90;;
10805;SDS011;5455;53.224;6.000;2023-03-01T06:20:29;7.20;;;6.10;;
10805;SDS011;5455;53.224;6.000;2023-03-01T06:22:56;5.47;;;4.70;;
10805;SDS011;5455;53.224;6.000;2023-03-01T06:25:24;5.27;;;4.20;;
10805;SDS011;5455;53.224;6.000;2023-03-01T06:27:53;4.87;;;3.80;;
10805;SDS011;5455;53.224;6.000;2023-03-01T06:30:20;4.27;;;3.57;;
10805;SDS011;5455;53.224;6.000;2023-03-01T06:32:48;4.27;;;3.87;;
10805;SDS011;5455;53.224;6.000;2023-03-01T06:35:17;5.93;;;3.73;;
10805;SDS011;5455;53.224;6.000;2023-03-01T06:37:45;3.97;;;3.30;;
10805;SDS011;5455;53.224;6.000;2023-03-01T06:40:13;4.73;;;3.60;;
10805;SDS011;5455;53.224;6.000;2023-03-01T06:42:42;4.57;;;3.97;;
10805;SDS011;5455;53.224;6.000;2023-03-01T06:45:13;4.57;;;3.83;;
10805;SDS011;5455;53.224;6.000;2023-03-01T06:47:40;4.43;;;3.67;;
10805;SDS011;5455;53.224;6.000;2023-03-01T06:50:07;4.73;;;4.03;;
10805;SDS011;5455;53.224;6.000;2023-03-01T06:52:35;4.20;;;3.70;;
10805;SDS011;5455;53.224;6.000;2023-03-01T06:55:02;4.90;;;4.03;;
10805;SDS011;5455;53.224;6.000;2023-03-01T06:57:29;4.50;;;3.93;;
10805;SDS011;5455;53.224;6.000;2023-03-01T06:59:56;4.83;;;4.10;;
10805;SDS011;5455;53.224;6.000;2023-03-01T07:02:23;5.17;;;4.20;;
10805;SDS011;5455;53.224;6.000;2023-03-01T07:04:51;6.53;;;4.43;;
10805;SDS011;5455;53.224;6.000;2023-03-01T07:07:18;6.90;;;4.30;;
10805;SDS011;5455;53.224;6.000;2023-03-01T07:09:46;5.10;;;4.20;;
10805;SDS011;5455;53.224;6.000;2023-03-01T07:12:14;5.47;;;4.27;;
10805;SDS011;5455;53.224;6.000;2023-03-01T07:14:43;7.00;;;4.30;;
10805;SDS011;5455;53.224;6.000;2023-03-01T07:17:10;4.93;;;3.77;;
10805;SDS011;5455;53.224;6.000;2023-03-01T07:19:37;5.07;;;3.90;;
10805;SDS011;5455;53.224;6.000;2023-03-01T07:22:04;5.70;;;4.10;;
10805;SDS011;5455;53.224;6.000;2023-03-01T07:24:34;6.23;;;4.03;;
10805;SDS011;5455;53.224;6.000;2023-03-01T07:27:01;4.83;;;3.53;;
10805;SDS011;5455;53.224;6.000;2023-03-01T07:29:28;5.50;;;3.83;;
10805;SDS011;5455;53.224;6.000;2023-03-01T07:31:55;5.17;;;4.30;;
10805;SDS011;5455;53.224;6.000;2023-03-01T07:34:22;4.80;;;4.07;;
10805;SDS011;5455;53.224;6.000;2023-03-01T07:36:49;5.67;;;4.50;;
10805;SDS011;5455;53.224;6.000;2023-03-01T07:39:16;5.33;;;4.30;;
10805;SDS011;5455;53.224;6.000;2023-03-01T07:41:45;5.50;;;4.33;;
10805;SDS011;5455;53.224;6.000;2023-03-01T07:44:12;5.87;;;4.13;;
10805;SDS011;5455;53.224;6.000;2023-03-01T07:46:39;4.47;;;3.90;;
10805;SDS011;5455;53.224;6.000;2023-03-01T07:49:06;6.57;;;4.43;;
10805;SDS011;5455;53.224;6.000;2023-03-01T07:51:33;6.70;;;4.53;;
10805;SDS011;5455;53.224;6.000;2023-03-01T07:54:00;4.90;;;4.37;;
10805;SDS011;5455;53.224;6.000;2023-03-01T07:56:27;5.73;;;4.33;;
10805;SDS011;5455;53.224;6.000;2023-03-01T07:58:54;7.37;;;4.83;;
10805;SDS011;5455;53.224;6.000;2023-03-01T08:01:22;6.23;;;4.90;;
10805;SDS011;5455;53.224;6.000;2023-03-01T08:03:49;5.30;;;4.50;;
10805;SDS011;5455;53.224;6.000;2023-03-01T08:06:16;5.73;;;4.60;;
10805;SDS011;5455;53.224;6.000;2023-03-01T08:08:44;6.33;;;5.00;;
10805;SDS011;5455;53.224;6.000;2023-03-01T08:11:12;6.40;;;5.50;;
10805;SDS011;5455;53.224;6.000;2023-03-01T08:13:41;7.00;;;5.10;;
10805;SDS011;5455;53.224;6.000;2023-03-01T08:16:13;5.80;;;5.20;;
10805;SDS011;5455;53.224;6.000;2023-03-01T08:18:42;7.43;;;5.57;;
10805;SDS011;5455;53.224;6.000;2023-03-01T08:21:10;6.50;;;5.07;;
10805;SDS011;5455;53.224;6.000;2023-03-01T08:23:39;7.97;;;6.23;;
10805;SDS011;5455;53.224;6.000;2023-03-01T08:26:17;6.47;;;5.60;;
10805;SDS011;5455;53.224;6.000;2023-03-01T08:28:46;7.70;;;6.20;;
10805;SDS011;5455;53.224;6.000;2023-03-01T08:31:28;7.87;;;6.00;;
10805;SDS011;5455;53.224;6.000;2023-03-01T08:33:59;6.70;;;5.70;;
10805;SDS011;5455;53.224;6.000;2023-03-01T08:36:28;6.47;;;5.77;;
10805;SDS011;5455;53.224;6.000;2023-03-01T08:39:01;7.27;;;6.07;;
10805;SDS011;5455;53.224;6.000;2023-03-01T08:41:29;6.87;;;6.13;;
10805;SDS011;5455;53.224;6.000;2023-03-01T08:43:56;8.37;;;6.03;;
10805;SDS011;5455;53.224;6.000;2023-03-01T08:46:26;9.53;;;5.80;;
10805;SDS011;5455;53.224;6.000;2023-03-01T08:49:04;7.20;;;5.87;;
10805;SDS011;5455;53.224;6.000;2023-03-01T08:51:33;6.77;;;5.70;;
10805;SDS011;5455;53.224;6.000;2023-03-01T08:54:03;7.60;;;5.83;;
10805;SDS011;5455;53.224;6.000;2023-03-01T08:56:32;9.50;;;6.67;;
10805;SDS011;5455;53.224;6.000;2023-03-01T08:58:59;9.07;;;6.60;;
10805;SDS011;5455;53.224;6.000;2023-03-01T09:01:26;7.13;;;6.40;;
10805;SDS011;5455;53.224;6.000;2023-03-01T09:03:53;8.23;;;6.57;;
10805;SDS011;5455;53.224;6.000;2023-03-01T09:06:20;8.43;;;6.90;;
10805;SDS011;5455;53.224;6.000;2023-03-01T09:08:48;11.63;;;7.10;;
10805;SDS011;5455;53.224;6.000;2023-03-01T09:11:17;9.10;;;7.20;;
10805;SDS011;5455;53.224;6.000;2023-03-01T09:13:48;9.00;;;6.77;;
10805;SDS011;5455;53.224;6.000;2023-03-01T09:16:16;8.63;;;7.00;;
10805;SDS011;5455;53.224;6.000;2023-03-01T09:18:48;8.23;;;7.17;;
10805;SDS011;5455;53.224;6.000;2023-03-01T09:21:17;12.07;;;10.10;;
10805;SDS011;5455;53.224;6.000;2023-03-01T09:24:04;10.77;;;8.47;;
10805;SDS011;5455;53.224;6.000;2023-03-01T09:26:32;9.90;;;8.23;;
10805;SDS011;5455;53.224;6.000;2023-03-01T09:28:59;10.33;;;7.63;;
10805;SDS011;5455;53.224;6.000;2023-03-01T09:31:26;11.17;;;8.03;;
10805;SDS011;5455;53.224;6.000;2023-03-01T09:33:54;8.83;;;7.07;;
10805;SDS011;5455;53.224;6.000;2023-03-01T09:36:22;10.17;;;7.27;;
10805;SDS011;5455;53.224;6.000;2023-03-01T09:38:51;8.83;;;6.90;;
10805;SDS011;5455;53.224;6.000;2023-03-01T09:43:50;9.97;;;7.40;;
10805;SDS011;5455;53.224;6.000;2023-03-01T09:46:25;9.60;;;7.00;;
10805;SDS011;5455;53.224;6.000;2023-03-01T09:49:04;8.67;;;6.40;;
10805;SDS011;5455;53.224;6.000;2023-03-01T09:51:38;11.47;;;6.80;;
10805;SDS011;5455;53.224;6.000;2023-03-01T09:54:05;7.67;;;6.23;;
10805;SDS011;5455;53.224;6.000;2023-03-01T09:56:52;10.67;;;6.43;;
10805;SDS011;5455;53.224;6.000;2023-03-01T09:59:28;6.77;;;5.50;;
10805;SDS011;5455;53.224;6.000;2023-03-01T10:02:26;9.03;;;6.27;;
10805;SDS011;5455;53.224;6.000;2023-03-01T10:05:17;7.43;;;5.70;;
10805;SDS011;5455;53.224;6.000;2023-03-01T10:10:48;8.40;;;6.60;;
10805;SDS011;5455;53.224;6.000;2023-03-01T10:15:56;8.67;;;6.27;;
10805;SDS011;5455;53.224;6.000;2023-03-01T10:18:32;8.77;;;6.40;;
10805;SDS011;5455;53.224;6.000;2023-03-01T10:21:08;10.93;;;7.73;;
10805;SDS011;5455;53.224;6.000;2023-03-01T10:23:41;10.60;;;7.53;;
10805;SDS011;5455;53.224;6.000;2023-03-01T10:28:42;9.40;;;7.17;;
10805;SDS011;5455;53.224;6.000;2023-03-01T10:31:43;9.33;;;7.10;;
10805;SDS011;5455;53.224;6.000;2023-03-01T10:34:13;12.37;;;7.70;;
10805;SDS011;5455;53.224;6.000;2023-03-01T10:36:47;11.60;;;7.67;;
10805;SDS011;5455;53.224;6.000;2023-03-01T10:39:17;9.90;;;7.53;;
10805;SDS011;5455;53.224;6.000;2023-03-01T10:41:57;8.87;;;7.43;;
10805;SDS011;5455;53.224;6.000;2023-03-01T10:49:51;10.47;;;7.90;;
10805;SDS011;5455;53.224;6.000;2023-03-01T10:52:21;9.87;;;7.80;;
10805;SDS011;5455;53.224;6.000;2023-03-01T10:54:56;10.70;;;8.37;;
10805;SDS011;5455;53.224;6.000;2023-03-01T10:57:33;11.67;;;7.40;;
10805;SDS011;5455;53.224;6.000;2023-03-01T11:02:39;12.57;;;8.23;;
10805;SDS011;5455;53.224;6.000;2023-03-01T11:05:16;7.73;;;6.90;;
10805;SDS011;5455;53.224;6.000;2023-03-01T11:07:47;10.00;;;7.80;;
10805;SDS011;5455;53.224;6.000;2023-03-01T11:10:17;8.43;;;7.17;;
10805;SDS011;5455;53.224;6.000;2023-03-01T11:12:45;10.30;;;6.77;;
10805;SDS011;5455;53.224;6.000;2023-03-01T11:15:23;8.97;;;7.33;;
10805;SDS011;5455;53.224;6.000;2023-03-01T11:17:54;8.33;;;7.37;;
10805;SDS011;5455;53.224;6.000;2023-03-01T11:20:39;9.73;;;7.30;;
10805;SDS011;5455;53.224;6.000;2023-03-01T11:23:08;9.97;;;7.77;;
10805;SDS011;5455;53.224;6.000;2023-03-01T11:25:40;10.67;;;7.80;;
10805;SDS011;5455;53.224;6.000;2023-03-01T11:28:16;10.20;;;7.70;;
10805;SDS011;5455;53.224;6.000;2023-03-01T11:31:27;10.40;;;7.57;;
10805;SDS011;5455;53.224;6.000;2023-03-01T11:33:46;10.30;;;7.77;;
10805;SDS011;5455;53.224;6.000;2023-03-01T11:39:20;11.20;;;7.57;;
10805;SDS011;5455;53.224;6.000;2023-03-01T11:41:49;9.23;;;7.63;;
10805;SDS011;5455;53.224;6.000;2023-03-01T11:44:38;8.97;;;7.10;;
10805;SDS011;5455;53.224;6.000;2023-03-01T11:52:56;9.77;;;8.17;;
10805;SDS011;5455;53.224;6.000;2023-03-01T12:06:24;10.70;;;7.80;;
10805;SDS011;5455;53.224;6.000;2023-03-01T12:43:43;10.17;;;7.10;;
10805;SDS011;5455;53.224;6.000;2023-03-01T12:46:31;9.97;;;7.40;;
10805;SDS011;5455;53.224;6.000;2023-03-01T12:49:12;10.90;;;6.93;;
10805;SDS011;5455;53.224;6.000;2023-03-01T12:51:46;9.43;;;6.97;;
10805;SDS011;5455;53.224;6.000;2023-03-01T12:54:41;11.47;;;7.67;;
10805;SDS011;5455;53.224;6.000;2023-03-01T13:02:20;9.73;;;6.50;;
10805;SDS011;5455;53.224;6.000;2023-03-01T13:07:29;13.67;;;8.10;;
10805;SDS011;5455;53.224;6.000;2023-03-01T13:10:06;9.17;;;6.87;;
10805;SDS011;5455;53.224;6.000;2023-03-01T13:20:31;10.90;;;7.40;;
10805;SDS011;5455;53.224;6.000;2023-03-01T13:23:04;10.00;;;7.50;;
10805;SDS011;5455;53.224;6.000;2023-03-01T13:33:54;9.67;;;7.50;;
10805;SDS011;5455;53.224;6.000;2023-03-01T13:38:57;11.23;;;6.47;;
10805;SDS011;5455;53.224;6.000;2023-03-01T13:46:56;12.83;;;7.20;;
10805;SDS011;5455;53.224;6.000;2023-03-01T13:49:33;9.27;;;7.20;;
10805;SDS011;5455;53.224;6.000;2023-03-01T13:52:32;9.97;;;6.70;;
10805;SDS011;5455;53.224;6.000;2023-03-01T13:55:02;10.20;;;6.67;;
10805;SDS011;5455;53.224;6.000;2023-03-01T13:57:34;8.07;;;6.97;;
10805;SDS011;5455;53.224;6.000;2023-03-01T14:00:06;12.80;;;6.80;;
10805;SDS011;5455;53.224;6.000;2023-03-01T14:02:33;8.80;;;6.53;;
10805;SDS011;5455;53.224;6.000;2023-03-01T14:05:02;10.93;;;6.87;;
10805;SDS011;5455;53.224;6.000;2023-03-01T14:07:29;11.63;;;7.53;;
10805;SDS011;5455;53.224;6.000;2023-03-01T14:10:01;12.13;;;7.47;;
10805;SDS011;5455;53.224;6.000;2023-03-01T14:20:20;9.97;;;6.73;;
10805;SDS011;5455;53.224;6.000;2023-03-01T14:22:53;9.00;;;6.23;;
10805;SDS011;5455;53.224;6.000;2023-03-01T14:25:24;7.73;;;6.00;;
10805;SDS011;5455;53.224;6.000;2023-03-01T14:27:55;8.93;;;6.70;;
10805;SDS011;5455;53.224;6.000;2023-03-01T14:30:43;7.27;;;5.90;;
10805;SDS011;5455;53.224;6.000;2023-03-01T14:35:55;8.17;;;6.00;;
10805;SDS011;5455;53.224;6.000;2023-03-01T14:38:35;8.20;;;5.87;;
10805;SDS011;5455;53.224;6.000;2023-03-01T14:41:09;10.03;;;5.70;;
10805;SDS011;5455;53.224;6.000;2023-03-01T14:43:37;8.00;;;5.43;;
10805;SDS011;5455;53.224;6.000;2023-03-01T14:46:16;8.83;;;5.03;;
10805;SDS011;5455;53.224;6.000;2023-03-01T14:48:49;9.93;;;5.70;;
10805;SDS011;5455;53.224;6.000;2023-03-01T14:51:17;6.87;;;5.33;;
10805;SDS011;5455;53.224;6.000;2023-03-01T14:53:44;8.90;;;6.27;;
10805;SDS011;5455;53.224;6.000;2023-03-01T14:56:17;8.50;;;5.50;;
10805;SDS011;5455;53.224;6.000;2023-03-01T14:58:45;7.20;;;5.33;;
10805;SDS011;5455;53.224;6.000;2023-03-01T15:01:15;9.00;;;5.93;;
10805;SDS011;5455;53.224;6.000;2023-03-01T15:03:48;8.33;;;5.63;;
10805;SDS011;5455;53.224;6.000;2023-03-01T15:06:19;8.10;;;5.93;;
10805;SDS011;5455;53.224;6.000;2023-03-01T15:08:49;9.67;;;6.47;;
10805;SDS011;5455;53.224;6.000;2023-03-01T15:11:23;8.50;;;6.63;;
10805;SDS011;5455;53.224;6.000;2023-03-01T15:13:53;8.30;;;6.23;;
10805;SDS011;5455;53.224;6.000;2023-03-01T15:16:30;8.77;;;6.43;;
10805;SDS011;5455;53.224;6.000;2023-03-01T15:19:03;8.80;;;6.13;;
10805;SDS011;5455;53.224;6.000;2023-03-01T15:21:39;9.67;;;7.00;;
10805;SDS011;5455;53.224;6.000;2023-03-01T15:26:53;8.40;;;6.53;;
10805;SDS011;5455;53.224;6.000;2023-03-01T15:29:29;9.17;;;6.90;;
10805;SDS011;5455;53.224;6.000;2023-03-01T15:32:00;9.10;;;7.20;;
10805;SDS011;5455;53.224;6.000;2023-03-01T15:34:34;8.07;;;6.50;;
10805;SDS011;5455;53.224;6.000;2023-03-01T15:37:05;9.53;;;7.13;;
10805;SDS011;5455;53.224;6.000;2023-03-01T15:39:54;9.40;;;7.30;;
10805;SDS011;5455;53.224;6.000;2023-03-01T15:45:19;11.37;;;6.77;;
10805;SDS011;5455;53.224;6.000;2023-03-01T15:47:48;7.87;;;6.27;;
10805;SDS011;5455;53.224;6.000;2023-03-01T15:50:29;7.57;;;5.57;;
10805;SDS011;5455;53.224;6.000;2023-03-01T15:53:11;7.37;;;6.10;;
10805;SDS011;5455;53.224;6.000;2023-03-01T15:55:41;8.33;;;6.30;;
10805;SDS011;5455;53.224;6.000;2023-03-01T16:00:47;8.17;;;5.57;;
10805;SDS011;5455;53.224;6.000;2023-03-01T16:03:27;6.40;;;5.30;;
10805;SDS011;5455;53.224;6.000;2023-03-01T16:05:54;8.27;;;5.50;;
10805;SDS011;5455;53.224;6.000;2023-03-01T16:08:21;5.63;;;4.90;;
10805;SDS011;5455;53.224;6.000;2023-03-01T16:10:48;7.33;;;5.67;;
10805;SDS011;5455;53.224;6.000;2023-03-01T16:13:17;6.53;;;5.50;;
10805;SDS011;5455;53.224;6.000;2023-03-01T16:15:44;7.10;;;5.80;;
10805;SDS011;5455;53.224;6.000;2023-03-01T16:18:11;7.70;;;5.80;;
10805;SDS011;5455;53.224;6.000;2023-03-01T16:20:38;10.90;;;7.20;;
10805;SDS011;5455;53.224;6.000;2023-03-01T16:23:07;10.83;;;7.70;;
10805;SDS011;5455;53.224;6.000;2023-03-01T16:25:36;10.07;;;7.50;;
10805;SDS011;5455;53.224;6.000;2023-03-01T16:28:04;10.97;;;8.37;;
10805;SDS011;5455;53.224;6.000;2023-03-01T16:30:35;12.83;;;9.43;;
10805;SDS011;5455;53.224;6.000;2023-03-01T16:33:08;12.47;;;8.80;;
10805;SDS011;5455;53.224;6.000;2023-03-01T16:35:55;13.60;;;8.90;;
10805;SDS011;5455;53.224;6.000;2023-03-01T16:38:22;11.73;;;8.60;;
10805;SDS011;5455;53.224;6.000;2023-03-01T16:40:50;15.57;;;8.97;;
10805;SDS011;5455;53.224;6.000;2023-03-01T16:43:18;12.73;;;8.70;;
10805;SDS011;5455;53.224;6.000;2023-03-01T16:45:45;12.37;;;9.03;;
10805;SDS011;5455;53.224;6.000;2023-03-01T16:48:13;13.87;;;9.80;;
10805;SDS011;5455;53.224;6.000;2023-03-01T16:50:40;13.03;;;8.83;;
10805;SDS011;5455;53.224;6.000;2023-03-01T16:53:07;11.10;;;7.90;;
10805;SDS011;5455;53.224;6.000;2023-03-01T16:55:34;10.80;;;6.90;;
10805;SDS011;5455;53.224;6.000;2023-03-01T16:58:01;14.00;;;7.03;;
10805;SDS011;5455;53.224;6.000;2023-03-01T17:00:29;10.43;;;7.27;;
10805;SDS011;5455;53.224;6.000;2023-03-01T17:02:56;13.37;;;7.27;;
10805;SDS011;5455;53.224;6.000;2023-03-01T17:05:23;9.93;;;7.00;;
10805;SDS011;5455;53.224;6.000;2023-03-01T17:07:50;9.67;;;6.83;;
10805;SDS011;5455;53.224;6.000;2023-03-01T17:10:17;10.60;;;6.53;;
10805;SDS011;5455;53.224;6.000;2023-03-01T17:12:47;11.07;;;7.60;;
10805;SDS011;5455;53.224;6.000;2023-03-01T17:15:16;15.60;;;8.33;;
10805;SDS011;5455;53.224;6.000;2023-03-01T17:17:43;13.27;;;9.37;;
10805;SDS011;5455;53.224;6.000;2023-03-01T17:20:10;12.97;;;8.70;;
10805;SDS011;5455;53.224;6.000;2023-03-01T17:22:37;15.47;;;9.37;;
10805;SDS011;5455;53.224;6.000;2023-03-01T17:25:06;16.67;;;8.73;;
10805;SDS011;5455;53.224;6.000;2023-03-01T17:27:35;11.60;;;7.17;;
10805;SDS011;5455;53.224;6.000;2023-03-01T17:30:03;11.73;;;7.20;;
10805;SDS011;5455;53.224;6.000;2023-03-01T17:32:32;14.63;;;7.47;;
10805;SDS011;5455;53.224;6.000;2023-03-01T17:34:59;12.67;;;7.30;;
10805;SDS011;5455;53.224;6.000;2023-03-01T17:37:26;13.37;;;7.07;;